createdAt,value
2022-08-28T00:00:15.594Z,15.57
2022-08-28T00:02:42.980Z,15.56
2022-08-28T00:05:11.627Z,15.54
2022-08-28T00:07:39.032Z,15.52
2022-08-28T00:10:08.520Z,15.51
2022-08-28T00:12:36.548Z,15.46
2022-08-28T00:15:09.785Z,15.44
2022-08-28T00:17:40.186Z,15.42
2022-08-28T00:20:09.696Z,15.40
2022-08-28T00:22:38.419Z,15.38
2022-08-28T00:25:07.312Z,15.35
2022-08-28T00:27:52.313Z,15.32
2022-08-28T00:30:34.284Z,15.29
2022-08-28T00:33:05.444Z,15.27
2022-08-28T00:35:32.172Z,15.24
2022-08-28T00:37:59.347Z,15.21
2022-08-28T00:40:32.532Z,15.19
2022-08-28T00:43:03.098Z,15.16
2022-08-28T00:45:33.862Z,15.14
2022-08-28T00:48:02.790Z,15.12
2022-08-28T00:50:56.704Z,15.08
2022-08-28T00:53:32.760Z,15.07
2022-08-28T00:56:04.205Z,15.06
2022-08-28T00:58:33.987Z,15.07
2022-08-28T01:01:00.808Z,15.05
2022-08-28T01:03:28.410Z,15.00
2022-08-28T01:05:55.632Z,14.97
2022-08-28T01:08:23.021Z,14.92
2022-08-28T01:10:54.131Z,14.88
2022-08-28T01:13:21.096Z,14.84
2022-08-28T01:15:49.770Z,14.83
2022-08-28T01:18:17.610Z,14.82
2022-08-28T01:20:59.601Z,14.77
2022-08-28T01:23:42.504Z,14.74
2022-08-28T01:26:11.004Z,14.70
2022-08-28T01:28:39.433Z,14.68
2022-08-28T01:31:08.812Z,14.64
2022-08-28T01:33:35.308Z,14.61
2022-08-28T01:36:02.152Z,14.59
2022-08-28T01:38:28.686Z,14.56
2022-08-28T01:40:57.741Z,14.55
2022-08-28T01:43:26.283Z,14.55
2022-08-28T01:45:57.581Z,14.59
2022-08-28T01:48:26.109Z,14.59
2022-08-28T01:50:53.054Z,14.56
2022-08-28T01:53:24.929Z,14.53
2022-08-28T01:55:53.447Z,14.49
2022-08-28T01:58:21.152Z,14.47
2022-08-28T02:00:48.009Z,14.44
2022-08-28T02:03:15.201Z,14.43
2022-08-28T02:05:42.240Z,14.40
2022-08-28T02:08:08.958Z,14.37
2022-08-28T02:10:38.203Z,14.36
2022-08-28T02:13:06.235Z,14.33
2022-08-28T02:15:35.125Z,14.30
2022-08-28T02:18:02.059Z,14.28
2022-08-28T02:20:29.318Z,14.26
2022-08-28T02:22:57.933Z,14.23
2022-08-28T02:25:25.514Z,14.24
2022-08-28T02:27:52.014Z,14.22
2022-08-28T02:30:19.308Z,14.21
2022-08-28T02:32:46.638Z,14.18
2022-08-28T02:35:15.827Z,14.20
2022-08-28T02:37:44.350Z,14.21
2022-08-28T02:40:16.443Z,14.18
2022-08-28T02:42:44.640Z,14.19
2022-08-28T02:45:13.488Z,14.22
2022-08-28T02:47:42.434Z,14.26
2022-08-28T02:50:12.964Z,14.28
2022-08-28T02:52:40.602Z,14.25
2022-08-28T02:55:08.961Z,14.20
2022-08-28T02:57:35.606Z,14.16
2022-08-28T03:00:05.217Z,14.13
2022-08-28T03:02:31.900Z,14.08
2022-08-28T03:04:59.801Z,14.06
2022-08-28T03:07:29.225Z,14.04
2022-08-28T03:09:56.404Z,14.02
2022-08-28T03:12:25.802Z,14.01
2022-08-28T03:14:53.009Z,13.98
2022-08-28T03:17:20.150Z,13.95
2022-08-28T03:19:46.929Z,13.95
2022-08-28T03:22:13.444Z,13.94
2022-08-28T03:24:39.952Z,13.95
2022-08-28T03:27:06.547Z,13.96
2022-08-28T03:29:33.074Z,13.96
2022-08-28T03:32:00.305Z,13.97
2022-08-28T03:34:27.027Z,13.97
2022-08-28T03:36:53.593Z,13.97
2022-08-28T03:39:20.232Z,13.97
2022-08-28T03:41:46.726Z,13.97
2022-08-28T03:44:13.506Z,13.95
2022-08-28T03:46:40.024Z,13.96
2022-08-28T03:49:06.498Z,13.94
2022-08-28T03:51:34.392Z,13.91
2022-08-28T03:54:03.087Z,13.90
2022-08-28T03:56:30.950Z,13.87
2022-08-28T03:59:00.505Z,13.84
2022-08-28T04:01:27.695Z,13.81
2022-08-28T04:03:54.433Z,13.81
2022-08-28T04:06:21.204Z,13.79
2022-08-28T04:08:47.976Z,13.77
2022-08-28T04:11:14.995Z,13.77
2022-08-28T04:13:41.968Z,13.75
2022-08-28T04:16:11.302Z,13.72
2022-08-28T04:18:42.488Z,13.71
2022-08-28T04:21:16.422Z,13.70
2022-08-28T04:23:44.979Z,13.68
2022-08-28T04:26:18.334Z,13.65
2022-08-28T04:28:46.705Z,13.63
2022-08-28T04:31:15.021Z,13.62
2022-08-28T04:33:41.945Z,13.61
2022-08-28T04:36:13.049Z,13.61
2022-08-28T04:38:43.937Z,13.60
2022-08-28T04:41:15.161Z,13.59
2022-08-28T04:43:42.629Z,13.59
2022-08-28T04:46:13.220Z,13.58
2022-08-28T04:48:40.891Z,13.57
2022-08-28T04:51:09.411Z,13.59
2022-08-28T04:53:38.176Z,13.60
2022-08-28T04:56:07.296Z,13.62
2022-08-28T04:58:34.287Z,13.63
2022-08-28T05:01:10.968Z,13.66
2022-08-28T05:03:37.504Z,13.66
2022-08-28T05:06:04.592Z,13.67
2022-08-28T05:08:31.980Z,13.68
2022-08-28T05:11:08.498Z,13.71
2022-08-28T05:13:35.202Z,13.74
2022-08-28T05:16:03.898Z,13.77
2022-08-28T05:18:30.420Z,13.79
2022-08-28T05:20:57.546Z,13.84
2022-08-28T05:23:25.621Z,13.88
2022-08-28T05:25:52.434Z,13.93
2022-08-28T05:28:19.081Z,13.98
2022-08-28T05:30:46.158Z,14.00
2022-08-28T05:33:14.514Z,14.07
2022-08-28T05:35:43.963Z,14.13
2022-08-28T05:38:13.417Z,14.20
2022-08-28T05:40:43.449Z,14.26
2022-08-28T05:43:11.603Z,14.36
2022-08-28T05:45:38.149Z,14.50
2022-08-28T05:48:05.137Z,14.63
2022-08-28T05:50:31.692Z,14.69
2022-08-28T05:52:58.231Z,14.75
2022-08-28T05:55:24.845Z,14.78
2022-08-28T05:57:51.314Z,14.84
2022-08-28T06:00:18.397Z,14.89
2022-08-28T06:02:45.033Z,14.94
2022-08-28T06:05:12.632Z,15.01
2022-08-28T06:07:44.045Z,15.05
2022-08-28T06:10:10.844Z,15.11
2022-08-28T06:12:38.148Z,15.16
2022-08-28T06:15:06.022Z,15.21
2022-08-28T06:17:32.658Z,15.25
2022-08-28T06:19:59.370Z,15.32
2022-08-28T06:22:25.938Z,15.36
2022-08-28T06:24:53.902Z,15.42
2022-08-28T06:27:20.542Z,15.47
2022-08-28T06:29:47.195Z,15.53
2022-08-28T06:32:13.799Z,15.57
2022-08-28T06:34:40.636Z,15.64
2022-08-28T06:37:08.797Z,15.69
2022-08-28T06:39:35.518Z,15.77
2022-08-28T06:42:02.185Z,15.83
2022-08-28T06:44:28.913Z,15.91
2022-08-28T06:46:55.719Z,16.07
2022-08-28T06:49:22.500Z,16.30
2022-08-28T06:51:49.573Z,16.48
2022-08-28T06:54:22.306Z,16.64
2022-08-28T06:56:50.925Z,16.75
2022-08-28T06:59:17.508Z,16.86
2022-08-28T07:01:44.269Z,16.94
2022-08-28T07:04:13.763Z,16.99
2022-08-28T07:06:43.990Z,17.10
2022-08-28T07:09:11.665Z,17.16
2022-08-28T07:11:39.148Z,17.17
2022-08-28T07:14:06.620Z,17.15
2022-08-28T07:16:38.196Z,17.20
2022-08-28T07:19:06.659Z,17.25
2022-08-28T07:21:38.644Z,17.31
2022-08-28T07:24:06.419Z,17.37
2022-08-28T07:26:33.091Z,17.33
2022-08-28T07:29:10.797Z,17.35
2022-08-28T07:31:41.521Z,17.41
2022-08-28T07:34:09.719Z,17.51
2022-08-28T07:36:37.077Z,17.53
2022-08-28T07:39:05.167Z,17.59
2022-08-28T07:41:34.365Z,17.73
2022-08-28T07:44:20.055Z,17.83
2022-08-28T07:46:46.723Z,17.87
2022-08-28T07:49:17.347Z,17.95
2022-08-28T07:51:46.686Z,18.02
2022-08-28T07:54:15.485Z,18.11
2022-08-28T07:56:44.375Z,18.15
2022-08-28T07:59:11.886Z,18.28
2022-08-28T08:01:43.686Z,18.38
2022-08-28T08:04:13.240Z,18.39
2022-08-28T08:06:41.164Z,18.45
2022-08-28T08:09:11.085Z,18.48
2022-08-28T08:11:38.242Z,18.53
2022-08-28T08:14:05.958Z,18.55
2022-08-28T08:16:35.765Z,18.61
2022-08-28T08:19:03.375Z,18.67
2022-08-28T08:21:31.637Z,18.79
2022-08-28T08:23:58.947Z,18.88
2022-08-28T08:26:30.124Z,18.93
2022-08-28T08:28:56.979Z,18.99
2022-08-28T08:31:35.190Z,18.99
2022-08-28T08:34:04.339Z,18.99
2022-08-28T08:36:33.418Z,18.98
2022-08-28T08:39:00.721Z,19.02
2022-08-28T08:41:48.134Z,19.10
2022-08-28T08:44:23.562Z,19.12
2022-08-28T08:47:22.366Z,19.11
2022-08-28T08:49:57.210Z,19.14
2022-08-28T08:52:59.236Z,19.10
2022-08-28T08:55:32.197Z,18.87
2022-08-28T08:58:06.729Z,18.58
2022-08-28T09:00:39.307Z,18.51
2022-08-28T09:03:13.234Z,18.70
2022-08-28T09:05:46.190Z,18.89
2022-08-28T09:08:25.194Z,19.06
2022-08-28T09:11:00.788Z,19.15
2022-08-28T09:13:39.656Z,19.30
2022-08-28T09:16:17.465Z,19.36
2022-08-28T09:18:44.795Z,19.30
2022-08-28T09:21:11.729Z,19.22
2022-08-28T09:23:38.250Z,19.27
2022-08-28T09:26:12.405Z,19.40
2022-08-28T09:28:41.554Z,19.52
2022-08-28T09:31:32.885Z,19.66
2022-08-28T09:34:23.594Z,19.65
2022-08-28T09:36:51.216Z,19.43
2022-08-28T09:39:21.219Z,19.25
2022-08-28T09:42:14.338Z,19.26
2022-08-28T09:45:09.418Z,19.61
2022-08-28T09:48:00.597Z,19.73
2022-08-28T09:50:38.650Z,19.56
2022-08-28T09:53:13.991Z,19.48
2022-08-28T09:55:55.941Z,19.38
2022-08-28T09:58:28.508Z,19.40
2022-08-28T10:01:32.252Z,19.45
2022-08-28T10:04:27.956Z,19.54
2022-08-28T10:07:13.275Z,19.58
2022-08-28T10:10:02.511Z,19.66
2022-08-28T10:13:01.475Z,19.79
2022-08-28T10:15:49.943Z,19.67
2022-08-28T10:18:38.850Z,19.56
2022-08-28T10:21:10.442Z,19.55
2022-08-28T10:24:24.762Z,19.64
2022-08-28T10:27:15.274Z,19.97
2022-08-28T10:30:07.698Z,20.00
2022-08-28T10:32:51.554Z,19.89
2022-08-28T10:35:23.068Z,19.84
2022-08-28T10:38:16.789Z,19.82
2022-08-28T10:40:52.137Z,19.80
2022-08-28T10:43:26.789Z,19.77
2022-08-28T10:45:54.910Z,19.82
2022-08-28T10:48:31.957Z,19.99
2022-08-28T10:51:04.716Z,20.21
2022-08-28T10:53:39.585Z,20.24
2022-08-28T10:56:25.378Z,20.31
2022-08-28T10:58:58.633Z,20.31
2022-08-28T11:01:38.481Z,20.37
2022-08-28T11:04:25.122Z,20.38
2022-08-28T11:06:57.679Z,20.39
2022-08-28T11:09:34.887Z,20.42
2022-08-28T11:12:27.490Z,20.50
2022-08-28T11:14:54.411Z,20.55
2022-08-28T11:17:30.518Z,20.64
2022-08-28T11:20:17.923Z,20.68
2022-08-28T11:23:03.228Z,20.73
2022-08-28T11:26:02.248Z,20.74
2022-08-28T11:28:34.720Z,20.69
2022-08-28T11:31:01.339Z,20.69
2022-08-28T11:33:37.094Z,20.72
2022-08-28T11:36:33.508Z,20.76
2022-08-28T11:39:29.879Z,20.85
2022-08-28T11:42:11.454Z,20.95
2022-08-28T11:44:44.020Z,21.00
2022-08-28T11:47:44.768Z,21.00
2022-08-28T11:50:21.829Z,20.96
2022-08-28T11:52:57.942Z,21.04
2022-08-28T11:55:48.064Z,21.10
2022-08-28T11:58:18.730Z,21.09
2022-08-28T12:01:00.610Z,21.06
2022-08-28T12:03:34.443Z,21.04
2022-08-28T12:06:02.303Z,21.05
2022-08-28T12:08:47.676Z,21.10
2022-08-28T12:12:04.049Z,21.19
2022-08-28T12:14:30.557Z,21.24
2022-08-28T12:16:59.820Z,21.23
2022-08-28T12:19:43.031Z,21.28
2022-08-28T12:22:26.404Z,21.35
2022-08-28T12:24:58.009Z,21.44
2022-08-28T12:27:25.761Z,21.53
2022-08-28T12:29:57.672Z,21.55
2022-08-28T12:32:48.793Z,21.56
2022-08-28T12:35:21.020Z,21.59
2022-08-28T12:37:53.836Z,21.59
2022-08-28T12:40:30.475Z,21.61
2022-08-28T12:43:06.777Z,21.62
2022-08-28T12:45:45.543Z,21.64
2022-08-28T12:48:21.566Z,21.65
2022-08-28T12:50:48.882Z,21.70
2022-08-28T12:53:18.207Z,21.68
2022-08-28T12:55:46.568Z,21.71
2022-08-28T12:58:26.704Z,21.76
2022-08-28T13:00:58.204Z,21.78
2022-08-28T13:03:25.283Z,21.80
2022-08-28T13:06:05.389Z,21.77
2022-08-28T13:08:34.159Z,21.78
2022-08-28T13:11:01.292Z,21.85
2022-08-28T13:13:36.027Z,21.90
2022-08-28T13:16:10.940Z,21.91
2022-08-28T13:19:11.187Z,21.87
2022-08-28T13:21:52.042Z,21.89
2022-08-28T13:24:24.201Z,21.91
2022-08-28T13:27:15.989Z,21.98
2022-08-28T13:29:48.711Z,22.02
2022-08-28T13:32:18.037Z,22.06
2022-08-28T13:35:09.606Z,22.08
2022-08-28T13:37:57.166Z,22.09
2022-08-28T13:40:56.330Z,22.17
2022-08-28T13:43:16.528Z,22.27
2022-08-28T13:45:45.385Z,22.46
2022-08-28T13:48:13.220Z,22.59
2022-08-28T13:50:46.844Z,22.68
2022-08-28T13:53:15.646Z,22.60
2022-08-28T13:55:42.353Z,22.58
2022-08-28T13:58:09.031Z,22.57
2022-08-28T14:00:40.777Z,22.62
2022-08-28T14:03:26.067Z,22.64
2022-08-28T14:05:53.099Z,22.47
2022-08-28T14:08:19.627Z,22.38
2022-08-28T14:10:46.508Z,22.44
2022-08-28T14:13:13.937Z,22.52
2022-08-28T14:15:40.558Z,22.52
2022-08-28T14:18:07.380Z,22.43
2022-08-28T14:20:34.129Z,22.41
2022-08-28T14:23:00.632Z,22.40
2022-08-28T14:25:27.107Z,22.42
2022-08-28T14:27:55.702Z,22.40
2022-08-28T14:30:22.816Z,22.38
2022-08-28T14:32:49.391Z,22.42
2022-08-28T14:35:15.969Z,22.49
2022-08-28T14:37:42.838Z,22.57
2022-08-28T14:40:10.339Z,22.64
2022-08-28T14:42:37.536Z,22.67
2022-08-28T14:45:04.501Z,22.76
2022-08-28T14:47:30.982Z,22.79
2022-08-28T14:49:57.567Z,22.71
2022-08-28T14:52:24.124Z,22.67
2022-08-28T14:54:50.667Z,22.60
2022-08-28T14:57:17.570Z,22.60
2022-08-28T14:59:45.309Z,22.63
2022-08-28T15:02:13.566Z,22.63
2022-08-28T15:04:40.096Z,22.57
2022-08-28T15:07:10.915Z,22.47
2022-08-28T15:09:40.812Z,22.45
2022-08-28T15:12:07.512Z,22.42
2022-08-28T15:14:35.537Z,22.39
2022-08-28T15:17:03.376Z,22.39
2022-08-28T15:19:30.132Z,22.38
2022-08-28T15:21:57.999Z,22.36
2022-08-28T15:24:28.425Z,22.37
2022-08-28T15:26:55.442Z,22.38
2022-08-28T15:29:22.211Z,22.40
2022-08-28T15:31:50.357Z,22.39
2022-08-28T15:34:25.041Z,22.40
2022-08-28T15:36:54.742Z,22.42
2022-08-28T15:39:41.314Z,22.45
2022-08-28T15:42:08.382Z,22.44
2022-08-28T15:44:34.906Z,22.50
2022-08-28T15:47:02.757Z,22.59
2022-08-28T15:49:32.316Z,22.76
2022-08-28T15:52:05.677Z,23.13
2022-08-28T15:54:32.463Z,23.93
2022-08-28T15:56:59.338Z,24.92
2022-08-28T15:59:25.857Z,25.95
2022-08-28T16:02:12.840Z,26.76
2022-08-28T16:04:39.472Z,27.35
2022-08-28T16:07:06.742Z,27.84
2022-08-28T16:09:33.321Z,28.20
2022-08-28T16:11:59.889Z,28.45
2022-08-28T16:14:26.425Z,28.84
2022-08-28T16:16:52.910Z,29.24
2022-08-28T16:19:19.555Z,29.59
2022-08-28T16:21:46.200Z,29.88
2022-08-28T16:24:12.775Z,30.57
2022-08-28T16:26:39.497Z,30.91
2022-08-28T16:29:06.074Z,31.01
2022-08-28T16:31:34.333Z,31.30
2022-08-28T16:34:02.941Z,31.42
2022-08-28T16:36:30.073Z,31.50
2022-08-28T16:39:00.561Z,31.50
2022-08-28T16:41:31.904Z,31.75
2022-08-28T16:43:59.158Z,31.30
2022-08-28T16:46:27.278Z,31.17
2022-08-28T16:48:54.484Z,31.18
2022-08-28T16:51:26.785Z,30.82
2022-08-28T16:53:54.764Z,30.65
2022-08-28T16:56:23.655Z,30.29
2022-08-28T16:58:53.021Z,29.48
2022-08-28T17:01:23.868Z,28.74
2022-08-28T17:03:52.634Z,28.24
2022-08-28T17:06:23.704Z,27.78
2022-08-28T17:08:55.846Z,26.78
2022-08-28T17:11:24.432Z,25.75
2022-08-28T17:13:51.253Z,25.01
2022-08-28T17:16:18.846Z,24.48
2022-08-28T17:18:47.995Z,24.02
2022-08-28T17:21:37.637Z,23.59
2022-08-28T17:24:05.466Z,23.21
2022-08-28T17:26:32.149Z,22.91
2022-08-28T17:28:58.672Z,22.62
2022-08-28T17:31:25.267Z,22.39
2022-08-28T17:33:52.348Z,22.17
2022-08-28T17:36:30.737Z,21.96
2022-08-28T17:39:05.874Z,21.77
2022-08-28T17:41:33.487Z,21.59
2022-08-28T17:44:01.162Z,21.44
2022-08-28T17:46:28.207Z,21.33
2022-08-28T17:48:56.031Z,21.18
2022-08-28T17:51:33.743Z,21.03
2022-08-28T17:54:10.444Z,20.87
2022-08-28T17:56:36.929Z,20.71
2022-08-28T17:59:04.379Z,20.59
2022-08-28T18:01:30.996Z,20.45
2022-08-28T18:03:57.774Z,20.36
2022-08-28T18:06:24.943Z,20.25
2022-08-28T18:08:51.922Z,20.11
2022-08-28T18:11:19.153Z,20.02
2022-08-28T18:13:46.457Z,19.90
2022-08-28T18:16:13.616Z,19.79
2022-08-28T18:18:41.121Z,19.66
2022-08-28T18:21:10.397Z,19.55
2022-08-28T18:23:37.391Z,19.45
2022-08-28T18:26:03.885Z,19.35
2022-08-28T18:28:31.944Z,19.27
2022-08-28T18:30:58.620Z,19.19
2022-08-28T18:33:25.362Z,19.10
2022-08-28T18:35:53.534Z,19.03
2022-08-28T18:38:22.289Z,18.95
2022-08-28T18:40:49.944Z,18.87
2022-08-28T18:43:20.205Z,18.77
2022-08-28T18:45:47.375Z,18.69
2022-08-28T18:48:14.808Z,18.61
2022-08-28T18:50:46.128Z,18.53
2022-08-28T18:53:14.199Z,18.45
2022-08-28T18:55:40.793Z,18.39
2022-08-28T18:58:07.387Z,18.34
2022-08-28T19:00:33.902Z,18.28
2022-08-28T19:03:00.685Z,18.23
2022-08-28T19:05:27.441Z,18.16
2022-08-28T19:07:54.040Z,18.11
2022-08-28T19:10:32.543Z,18.06
2022-08-28T19:13:01.106Z,18.00
2022-08-28T19:15:28.488Z,17.97
2022-08-28T19:17:55.241Z,17.90
2022-08-28T19:20:22.187Z,17.84
2022-08-28T19:22:49.309Z,17.77
2022-08-28T19:25:28.887Z,17.70
2022-08-28T19:27:59.138Z,17.58
2022-08-28T19:30:28.678Z,17.49
2022-08-28T19:32:55.197Z,17.43
2022-08-28T19:35:24.247Z,17.37
2022-08-28T19:37:52.299Z,17.33
2022-08-28T19:40:20.735Z,17.27
2022-08-28T19:42:49.792Z,17.21
2022-08-28T19:45:17.770Z,17.18
2022-08-28T19:47:44.896Z,17.15
2022-08-28T19:50:14.083Z,17.10
2022-08-28T19:52:41.886Z,17.05
2022-08-28T19:55:17.629Z,17.00
2022-08-28T19:57:46.118Z,17.00
2022-08-28T20:00:15.080Z,16.97
2022-08-28T20:02:41.876Z,16.94
2022-08-28T20:05:08.995Z,16.93
2022-08-28T20:07:35.601Z,16.88
2022-08-28T20:10:02.260Z,16.86
2022-08-28T20:12:28.785Z,16.82
2022-08-28T20:14:59.021Z,16.80
2022-08-28T20:17:29.470Z,16.77
2022-08-28T20:20:02.345Z,16.74
2022-08-28T20:22:31.760Z,16.68
2022-08-28T20:24:59.412Z,16.63
2022-08-28T20:27:26.440Z,16.56
2022-08-28T20:29:53.124Z,16.50
2022-08-28T20:32:19.718Z,16.45
2022-08-28T20:34:46.633Z,16.42
2022-08-28T20:37:13.575Z,16.38
2022-08-28T20:39:41.791Z,16.33
2022-08-28T20:42:09.804Z,16.29
2022-08-28T20:44:36.534Z,16.24
2022-08-28T20:47:04.125Z,16.19
2022-08-28T20:49:30.623Z,16.12
2022-08-28T20:51:57.553Z,16.07
2022-08-28T20:54:38.566Z,16.02
2022-08-28T20:57:11.584Z,15.95
2022-08-28T20:59:40.727Z,15.90
2022-08-28T21:02:17.347Z,15.84
2022-08-28T21:04:45.666Z,15.78
2022-08-28T21:07:14.081Z,15.70
2022-08-28T21:10:03.809Z,15.61
2022-08-28T21:12:28.001Z,15.54
2022-08-28T21:14:54.623Z,15.48
2022-08-28T21:17:28.697Z,15.43
2022-08-28T21:19:56.637Z,15.38
2022-08-28T21:22:23.247Z,15.31
2022-08-28T21:24:49.957Z,15.25
2022-08-28T21:27:16.528Z,15.20
2022-08-28T21:29:45.842Z,15.18
2022-08-28T21:32:13.076Z,15.16
2022-08-28T21:34:39.781Z,15.12
2022-08-28T21:37:06.543Z,15.07
2022-08-28T21:39:33.530Z,15.03
2022-08-28T21:42:00.191Z,14.98
2022-08-28T21:44:26.788Z,14.92
2022-08-28T21:46:53.348Z,14.86
2022-08-28T21:49:20.093Z,14.80
2022-08-28T21:51:47.052Z,14.74
2022-08-28T21:54:14.100Z,14.69
2022-08-28T21:56:40.631Z,14.65
2022-08-28T21:59:07.217Z,14.61
2022-08-28T22:01:34.179Z,14.55
2022-08-28T22:04:01.149Z,14.49
2022-08-28T22:06:27.675Z,14.47
2022-08-28T22:08:55.248Z,14.45
2022-08-28T22:11:24.761Z,14.43
2022-08-28T22:13:52.541Z,14.43
2022-08-28T22:16:19.743Z,14.38
2022-08-28T22:18:46.539Z,14.33
2022-08-28T22:21:34.111Z,14.27
2022-08-28T22:24:01.391Z,14.23
2022-08-28T22:26:28.470Z,14.20
2022-08-28T22:28:55.894Z,14.16
2022-08-28T22:31:23.134Z,14.15
2022-08-28T22:33:50.315Z,14.11
2022-08-28T22:36:17.476Z,14.07
2022-08-28T22:38:47.072Z,14.03
2022-08-28T22:41:20.431Z,13.97
2022-08-28T22:43:49.761Z,13.93
2022-08-28T22:46:18.692Z,13.92
2022-08-28T22:48:46.013Z,13.89
2022-08-28T22:51:15.539Z,13.86
2022-08-28T22:53:43.646Z,13.84
2022-08-28T22:56:11.779Z,13.81
2022-08-28T22:58:38.661Z,13.79
2022-08-28T23:01:09.957Z,13.77
2022-08-28T23:03:36.878Z,13.73
2022-08-28T23:06:04.013Z,13.70
2022-08-28T23:08:33.833Z,13.67
2022-08-28T23:11:01.197Z,13.65
2022-08-28T23:13:29.457Z,13.61
2022-08-28T23:15:56.056Z,13.61
2022-08-28T23:18:22.823Z,13.58
2022-08-28T23:20:50.518Z,13.57
2022-08-28T23:23:17.433Z,13.55
2022-08-28T23:25:44.135Z,13.54
2022-08-28T23:28:10.670Z,13.53
2022-08-28T23:30:38.979Z,13.51
2022-08-28T23:33:08.471Z,13.48
2022-08-28T23:35:35.997Z,13.43
2022-08-28T23:38:04.005Z,13.41
2022-08-28T23:40:33.147Z,13.40
2022-08-28T23:43:02.812Z,13.38
2022-08-28T23:45:30.001Z,13.37
2022-08-28T23:47:56.920Z,13.35
2022-08-28T23:50:23.618Z,13.32
2022-08-28T23:52:51.749Z,13.30
2022-08-28T23:55:19.629Z,13.26
2022-08-28T23:57:46.223Z,13.22
